Kakioka, Japan

3:35 PM JST on February 11, 2016 (GMT +0900)
Soratopia TSUKUBA | | Change Station
CLOSE
Current Station
Personal Weather Station
Location: 石岡市, 茨城県
Elevation: 131 ft
Nearby Weather Stations

Elev 131 ft 36.26 °N, 140.17 °E | Updated 59 seconds ago

Partly Cloudy
Partly Cloudy
50.5 °F
Feels Like 50.5 °F
N
4.0
Wind Variable Wind from NNW
Gusts 4.0 mph

Today
High -- | Low -- °F
--% Chance of Precip.
Yesterday
High -- | Low -- °F
Precip. -- in
Pressure 30.39 in
Visibility 6.2 miles
Clouds Few 6000 ft
Dew Point 21 °F
Humidity 31%
Rainfall 0.00 in
Snow Depth Not available.
6:32 AM 5:15 PM
Waxing Crescent, 10% visible
METAR RJAH 110600Z 21004KT 110V280 9999 FEW060 09/M06 Q1029
Pressure 30.39 in
Visibility 6.2 miles
Clouds Few 6000 ft
Dew Point 21 °F
Humidity 31%
Rainfall 0.00 in
Snow Depth Not available.
6:32 AM 5:15 PM
Waxing Crescent, 10% visible
METAR RJAH 110600Z 21004KT 110V280 9999 FEW060 09/M06 Q1029

10-Day Weather Forecast

No radar image for this location.
×

Almanac

Astronomy

Feb. 11, 2016 Rise Set
Actual Time
Civil Twilight
Nautical Twilight
Astronomical Twilight
Moon
Length of Visible Light
Length of Day
Tomorrow will be .
, % of the Moon is Illuminated

Today's Extremes

Country Highs Country Lows

Community

WunderPhotos

Upload Photos

1,892,028 photos uploaded!

WunderBlog® & News

Nearby

Air Quality

  Air Quality AQ Index Pollutant
Not available.

Snow Depth

Station Depth Elevation

Earthquake Activity

City Distance Mag. Time & Date
Minimum magnitude displayed is 2.5.

Coastal Water Temperatures

Place Temperature

Stations

Nearby Weather Stations

Station Location Temp. Windchill Dew Point Humidity Wind Precip. Elev Updated Type